Elton, LA (70532)

12:53 PM CDT on May 03, 2015 (GMT -0500)
Soileau | | Change Station
CLOSE
Current Station
Personal Weather Station
Location: Oberlin, LA
Elevation: 79 ft
Nearby Weather Stations

Elev 79 ft 30.58 °N, 92.68 °W | Updated 13 minutes ago

Mostly Cloudy
Mostly Cloudy
81.3 °F
Feels Like 82 °F
N
3.8
Wind Variable Wind from SW

Today
High -- | Low -- °F
--% Chance of Precip.
Yesterday
High -- | Low -- °F
Precip. -- in
6:25 AM 7:50 PM
Full, 100% visible
Pressure 30.10 in
Visibility 10.0 miles
Clouds Mostly Cloudy 4100 ft
Mostly Cloudy 4700 ft
Overcast 8000 ft
Heat Index 82 °F
Dew Point 62 °F
Humidity 53%
Rainfall 0.00 in
Snow Depth Not available.
UV 4 out of 12
Pollen 6.00 out of 12
Air Quality Not available.
Flu Activity Sporadic
METAR K3R7 031735Z AUTO 19006KT 10SM BKN041 BKN047 OVC080 26/16 A3010 RMK AO2 T02560158

More Conditions Fewer Conditions

Pressure 30.10 in
Visibility 10.0 miles
Clouds Mostly Cloudy 4100 ft
Mostly Cloudy 4700 ft
Overcast 8000 ft
Heat Index 82 °F
Dew Point 62 °F
Humidity 53%
Rainfall 0.00 in
Snow Depth Not available.
UV 4 out of 12
Pollen 6.00 out of 12
Air Quality Not available.
Flu Activity Sporadic
METAR K3R7 031735Z AUTO 19006KT 10SM BKN041 BKN047 OVC080 26/16 A3010 RMK AO2 T02560158

More Conditions Fewer Conditions

Nepal has a long way to go to dig out and rebuild from a devastating earthquake. We have teamed up with several charities and organizations to make contributing to the relief effort as easy as possible.
How you can help: Portlight Strategies | Red Cross

10-Day Weather Forecast

Almanac

Astronomy

May. 03, 2015 Rise Set
Actual Time
Civil Twilight
Nautical Twilight
Astronomical Twilight
Moon
Length of Visible Light
Length of Day
Tomorrow will be .
, % of the Moon is Illuminated

Today's Extremes

State Highs State Lows

Community

WunderPhotos

Upload Photos

1,818,296 photos uploaded!

WunderBlogs® & News

Nearby

Air Quality

  Air Quality AQ Index Pollutant
Not available.

Snow Depth

Station Depth Elevation

Earthquake Activity

City Distance Mag. Time & Date
Minimum magnitude displayed is 2.5.

Coastal Water Temperatures

Place Temperature

Stations

Nearby Weather Stations

Station Location Temp. Windchill Dew Point Humidity Wind Precip. Elev Updated Type